ADDS METAR Data INFO
IDs: Format: Raw Decoded Include TAF

Data at: 1623 UTC 25 Apr 2018

KLFK 251553Z AUTO 20009KT 10SM CLR 26/16 A3005 RMK AO2 SLP174 T02560156
KLFK 251453Z AUTO 21006KT 10SM CLR 23/16 A3007 RMK AO2 SLP179 T02330156 50006
KLFK 251353Z AUTO 21003KT 10SM CLR 19/16 A3007 RMK AO2 SLP180 T01940156
KLFK 251253Z AUTO 00000KT 10SM CLR 16/14 A3007 RMK AO2 SLP179 T01610139
KLFK 251153Z AUTO 32003KT 10SM CLR 13/12 A3005 RMK AO2 SLP173 T01280122 10144 20128 53002
KLFK 251053Z AUTO 13003KT 10SM CLR 13/12 A3002 RMK AO2 SLP161 T01280122
KLFK 250953Z AUTO 00000KT 10SM CLR 14/13 A3005 RMK AO2 SLP171 T01390128
KLFK 250853Z AUTO 00000KT 10SM CLR 14/13 A3005 RMK AO2 SLP171 T01390128 58008
KLFK 250753Z AUTO 00000KT 10SM CLR 13/12 A3005 RMK AO2 SLP174 T01330122
KLFK 250653Z AUTO 00000KT 10SM CLR 14/13 A3007 RMK AO2 SLP179 T01390128
KLFK 250553Z AUTO 00000KT 10SM CLR 14/13 A3007 RMK AO2 SLP179 T01440128 10261 20144 402830100 51014
KLFK 250453Z AUTO 00000KT 10SM CLR 16/13 A3007 RMK AO2 SLP178 T01560133
KLFK 250353Z AUTO 00000KT 10SM CLR 17/13 A3005 RMK AO2 SLP171 T01670133
KLFK 250253Z AUTO 09003KT 10SM CLR 18/14 A3003 RMK AO2 SLP165 T01780144 53012
KLFK 250153Z AUTO 00000KT 10SM CLR 19/14 A3001 RMK AO2 SLP160 T01940144
KLFK 250053Z AUTO 00000KT 10SM CLR 22/14 A3000 RMK AO2 SLP157 T02220144
KLFK 242353Z AUTO 00000KT 10SM CLR 26/13 A2999 RMK AO2 SLP153 T02610133 10283 20250 56006
KLFK 242253Z AUTO 36004KT 10SM CLR 27/12 A3000 RMK AO2 SLP155 T02720122
KLFK 242153Z AUTO VRB03KT 10SM CLR 28/12 A3000 RMK AO2 SLP156 T02780122
KLFK 242053Z AUTO VRB04KT 10SM CLR 28/13 A3001 RMK AO2 SLP159 T02780128 58022
KLFK 241953Z AUTO 29007KT 10SM CLR 27/13 A3004 RMK AO2 SLP168 T02720133
KLFK 241853Z AUTO 30008KT 10SM CLR 26/12 A3006 RMK AO2 SLP175 T02610122
KLFK 241753Z AUTO 34008KT 10SM CLR 25/12 A3008 RMK AO2 SLP182 T02500122 10256 20111 58009
KLFK 241653Z AUTO 31008KT 270V350 10SM CLR 24/13 A3010 RMK AO2 SLP189 T02440133
KLFK 241553Z AUTO 31005KT 10SM CLR 23/13 A3011 RMK AO2 SLP193 T02330133
KLFK 241453Z AUTO 31004KT 10SM CLR 21/14 A3010 RMK AO2 SLP191 T02060144 51015
KLFK 241353Z AUTO 29004KT 10SM CLR 16/13 A3009 RMK AO2 SLP187 T01610128
KLFK 241253Z AUTO 00000KT 10SM CLR 13/12 A3008 RMK AO2 SLP184 T01330122
KLFK 241153Z AUTO 33003KT 10SM CLR 11/11 A3006 RMK AO2 SLP177 T01110106 10122 20100 53016
KLFK 241053Z AUTO 00000KT 8SM CLR 10/09 A3003 RMK AO2 SLP167 T01000094
KLFK 240953Z AUTO 00000KT 10SM CLR 11/10 A3002 RMK AO2 SLP162 T01060100
KLFK 240853Z AUTO 00000KT 10SM CLR 11/11 A3001 RMK AO2 SLP161 T01110106 56007
KLFK 240753Z AUTO 00000KT 10SM CLR 11/11 A3002 RMK AO2 SLP162 T01110106
KLFK 240653Z AUTO 00000KT 10SM CLR 12/11 A3003 RMK AO2 SLP166 T01170111
KLFK 240553Z AUTO 00000KT 10SM CLR 12/11 A3004 RMK AO2 SLP169 T01220111 10211 20122 402220078 50001
KLFK 240453Z AUTO 00000KT 10SM CLR 13/12 A3004 RMK AO2 SLP171 T01330122